In Rescue
 
Open Full Screen Window  High Contrast Mode
March 04, 2021 3:21 AM CST
Weather Information
Wind Direction
  ---
Wind Speed
  00 kt (0 mph)
Wind Gust
  00 kt (0 mph)
Altimeter
30.21 in
Visibility
10 SM
Temperature
-04° C
25° F
Dewpoint
-08° C
18° F
Humidity
74%
1hr Rain Fall
00.00 in.
24hr Rain Fall
00.00 in.
Sky Condition
Clear
VFR

METAR KBJI 040921Z AUTO 00000KT 10SM CLR M04/M08 A3021 RMK AO2 T10401083

FAA Disclaimer: The data displayed is for advisory purposes only and is not to be used for flight planning or operations.